Rayne, LA (70578)

12:36 AM CDT on August 24, 2016 (GMT -0500)
Judice | | Change Station
Active Advisory: Flood Warning

Elev 30 ft 30.14 °N, 92.14 °W | Updated 36 seconds ago

Clear
Clear
78.1 °F
Feels Like 81 °F
N
0.0
Wind Variable Wind from ENE

Today
High -- | Low -- °F
--% Chance of Precip.
Yesterday
High -- | Low -- °F
Precip. -- in
Pressure 30.15 in
Visibility 10.0 miles
Clouds Clear
Heat Index 81 °F
Dew Point 77 °F
Humidity 98%
Rainfall 0.00 in
Snow Depth Not available.
6:41 AM 7:40 PM
Waning Gibbous, 60% visible
METAR KLFT 240453Z AUTO 00000KT 10SM CLR 28/24 A3015 RMK AO2 SLP210 T02780244
Pressure 30.15 in
Visibility 10.0 miles
Clouds Clear
Heat Index 81 °F
Dew Point 77 °F
Humidity 98%
Rainfall 0.00 in
Snow Depth Not available.
6:41 AM 7:40 PM
Waning Gibbous, 60% visible
METAR KLFT 240453Z AUTO 00000KT 10SM CLR 28/24 A3015 RMK AO2 SLP210 T02780244

10-Day Weather Forecast

Almanac

Astronomy

Aug. 24, 2016 Rise Set
Actual Time
Civil Twilight
Nautical Twilight
Astronomical Twilight
Moon
Length of Visible Light
Length of Day
Tomorrow will be .
, % of the Moon is Illuminated

Today's Extremes

State Highs State Lows

Community

WunderPhotos

Upload Photos

1,934,554 photos uploaded!

WunderBlog® & News

Nearby

Air Quality

  Air Quality AQ Index Pollutant
Not available.

Snow Depth

Station Depth Elevation

Earthquake Activity

City Distance Mag. Time & Date
Minimum magnitude displayed is 2.5.

Coastal Water Temperatures

Place Temperature

Stations

Nearby Weather Stations

Station Location Temp. Windchill Dew Point Humidity Wind Precip. Elev Updated Type
                   

Watches & Warnings

Flood Warning
Issued: 9:05 PM CDT Aug. 23, 2016 – National Weather Service

The Flood Warning continues for
the Mermentau river near Mermentau.
* Until further notice... or until the warning is cancelled.
* At 8:15 PM Tuesday the stage was 7.5 feet.
* Moderate flooding is occurring and moderate flooding is forecast.
* Flood stage is 4.0 feet.
* Forecast... the river will continue to fall to a stage of 6.4 feet
by Thursday morning.
* Impact... at stages near 7.5 feet... water is on the roadway of the
field Road bridge in the southeast part of Mermentau.


Lat... Lon 3025 9266 3004 9276 3004 9260 3019 9254 3024 9255